Time;durP1;ratioP1;P1;durP2;ratioP2;P2;SDS_P1;SDS_P2;PMS_P1;PMS_P2;Temp;Humidity;BMP_temperature;BMP_pressure;BME280_temperature;BME280_humidity;BME280_pressure;Samples;Min_cycle;Max_cycle;Signal;HPM_P1;HPM_P2
2023/03/18 00:02:02;;;;;;;53.70;32.83;;;;;;;;;;4987382;28;20030;-79
2023/03/18 00:04:27;;;;;;;54.15;33.53;;;;;;;;;;4977829;28;20275;-78
2023/03/18 00:06:53;;;;;;;51.03;32.70;;;;;;;;;;5002041;28;20034;-79
2023/03/18 00:09:19;;;;;;;56.63;33.80;;;;;;;;;;4992907;28;20048;-79
2023/03/18 00:11:45;;;;;;;53.60;34.78;;;;;;;;;;4994128;28;20234;-79
2023/03/18 00:14:11;;;;;;;58.03;34.50;;;;;;;;;;4994326;28;20046;-79
2023/03/18 00:16:38;;;;;;;63.67;36.28;;;;;;;;;;4994796;28;20072;-79
2023/03/18 00:19:04;;;;;;;56.75;35.45;;;;;;;;;;4995777;28;20037;-79
2023/03/18 00:21:30;;;;;;;56.22;35.33;;;;;;;;;;4996287;28;20076;-79
2023/03/18 00:24:00;;;;;;;60.03;36.15;;;;;;;;;;5001246;28;20045;-79
2023/03/18 00:26:26;;;;;;;59.33;35.45;;;;;;;;;;4995547;28;20077;-79
2023/03/18 00:28:51;;;;;;;57.33;36.58;;;;;;;;;;5005480;28;20483;-79
2023/03/18 00:31:17;;;;;;;61.80;37.72;;;;;;;;;;5002657;28;20044;-79
2023/03/18 00:33:45;;;;;;;64.03;39.45;;;;;;;;;;4999684;28;20073;-79
2023/03/18 00:36:14;;;;;;;63.83;39.33;;;;;;;;;;5005470;28;20558;-80
2023/03/18 00:38:41;;;;;;;64.97;40.65;;;;;;;;;;4999526;28;20049;-78
2023/03/18 00:41:10;;;;;;;64.75;39.30;;;;;;;;;;4999411;28;20044;-79
2023/03/18 00:43:45;;;;;;;66.75;39.38;;;;;;;;;;4999173;28;20375;-78
2023/03/18 00:46:17;;;;;;;66.15;39.05;;;;;;;;;;4998452;28;20115;-79
2023/03/18 00:48:43;;;;;;;63.88;39.13;;;;;;;;;;4998085;28;20091;-78
2023/03/18 00:51:12;;;;;;;65.70;38.95;;;;;;;;;;4997797;28;20147;-78
2023/03/18 00:53:39;;;;;;;68.05;39.70;;;;;;;;;;4976838;28;20124;-78
2023/03/18 00:56:04;;;;;;;78.43;43.97;;;;;;;;;;4998393;28;20572;-79
2023/03/18 00:58:32;;;;;;;69.60;42.72;;;;;;;;;;4997602;28;20038;-78
2023/03/18 01:00:57;;;;;;;72.07;45.78;;;;;;;;;;4998137;28;20106;-78
2023/03/18 01:03:25;;;;;;;75.85;44.40;;;;;;;;;;4980501;28;20529;-78
2023/03/18 01:05:50;;;;;;;69.90;42.67;;;;;;;;;;5004495;28;20133;-79
2023/03/18 01:08:16;;;;;;;72.40;42.65;;;;;;;;;;4982336;28;20041;-80
2023/03/18 01:10:41;;;;;;;67.60;41.13;;;;;;;;;;5006732;28;20115;-81
2023/03/18 01:13:07;;;;;;;71.82;42.03;;;;;;;;;;4988607;28;20087;-77
2023/03/18 01:15:32;;;;;;;65.78;40.13;;;;;;;;;;5002333;28;20056;-79
2023/03/18 01:17:58;;;;;;;65.15;39.50;;;;;;;;;;5001181;28;20073;-78
2023/03/18 01:20:26;;;;;;;60.63;37.95;;;;;;;;;;4990989;28;20533;-80
2023/03/18 01:22:53;;;;;;;57.70;36.67;;;;;;;;;;4988946;28;20042;-79
2023/03/18 01:25:19;;;;;;;60.65;36.45;;;;;;;;;;4988911;28;20044;-77
2023/03/18 01:27:44;;;;;;;60.60;39.58;;;;;;;;;;4998879;28;20080;-79
2023/03/18 01:30:10;;;;;;;68.15;39.22;;;;;;;;;;4974184;28;20038;-79
2023/03/18 01:32:36;;;;;;;62.72;39.13;;;;;;;;;;4996656;28;20038;-78
2023/03/18 01:35:02;;;;;;;60.22;38.38;;;;;;;;;;4997771;28;20042;-79
2023/03/18 01:37:27;;;;;;;69.38;40.33;;;;;;;;;;4979425;28;20040;-78
2023/03/18 01:39:55;;;;;;;65.90;38.08;;;;;;;;;;4990942;28;20044;-79
2023/03/18 01:42:21;;;;;;;63.92;38.10;;;;;;;;;;5002050;28;20018;-79
2023/03/18 01:44:47;;;;;;;62.90;38.65;;;;;;;;;;4983178;28;20133;-77
2023/03/18 01:47:16;;;;;;;63.17;39.97;;;;;;;;;;4998337;28;20080;-78
2023/03/18 01:49:43;;;;;;;72.50;42.67;;;;;;;;;;4997150;28;20041;-78
2023/03/18 01:52:11;;;;;;;80.75;45.50;;;;;;;;;;4996540;28;20033;-77
2023/03/18 01:54:43;;;;;;;83.63;45.53;;;;;;;;;;4961249;28;20048;-81
2023/03/18 01:57:09;;;;;;;;;;;;;;;;;;4998468;28;20061;-79
2023/03/18 01:59:37;;;;;;;85.05;44.58;;;;;;;;;;4997095;28;20020;-80
2023/03/18 02:02:05;;;;;;;70.97;41.92;;;;;;;;;;4997108;28;20144;-79
2023/03/18 02:04:35;;;;;;;74.13;43.55;;;;;;;;;;4996484;28;20034;-79
2023/03/18 02:07:03;;;;;;;72.38;45.22;;;;;;;;;;4984143;28;20041;-77
2023/03/18 02:09:31;;;;;;;80.22;45.67;;;;;;;;;;4997258;28;20037;-80
2023/03/18 02:11:57;;;;;;;81.57;43.92;;;;;;;;;;4997387;28;20043;-79
2023/03/18 02:14:24;;;;;;;70.45;41.88;;;;;;;;;;4984522;28;20037;-79
2023/03/18 02:17:00;;;;;;;76.40;44.75;;;;;;;;;;4998290;28;20088;-79
2023/03/18 02:19:38;;;;;;;75.50;43.85;;;;;;;;;;5003930;28;20505;-79
2023/03/18 02:22:09;;;;;;;69.80;42.10;;;;;;;;;;4998271;28;20112;-80
2023/03/18 02:24:53;;;;;;;73.40;43.30;;;;;;;;;;5009817;28;20444;-79
2023/03/18 02:27:18;;;;;;;72.28;43.25;;;;;;;;;;4995618;28;20036;-77
2023/03/18 02:29:45;;;;;;;74.30;43.05;;;;;;;;;;4997378;28;20041;-78
2023/03/18 02:32:11;;;;;;;68.82;41.72;;;;;;;;;;4995981;28;20044;-79
2023/03/18 02:34:43;;;;;;;72.57;44.08;;;;;;;;;;4996304;28;20125;-78
2023/03/18 02:37:09;;;;;;;74.10;43.65;;;;;;;;;;4996041;28;20030;-80
2023/03/18 02:39:39;;;;;;;77.22;43.63;;;;;;;;;;4995562;28;20128;-79
2023/03/18 02:42:05;;;;;;;77.68;45.70;;;;;;;;;;4982979;28;20689;-79
2023/03/18 02:44:35;;;;;;;72.10;43.33;;;;;;;;;;4995939;28;20041;-81
2023/03/18 02:47:07;;;;;;;69.82;41.90;;;;;;;;;;4996899;28;20052;-79
2023/03/18 02:49:33;;;;;;;67.80;42.65;;;;;;;;;;4997860;28;20034;-78
2023/03/18 02:51:58;;;;;;;62.80;40.13;;;;;;;;;;4999496;28;20049;-79
2023/03/18 02:54:25;;;;;;;65.90;39.70;;;;;;;;;;5005548;28;20165;-78
2023/03/18 02:56:51;;;;;;;63.92;40.17;;;;;;;;;;5004561;28;20473;-79
2023/03/18 02:59:17;;;;;;;73.47;41.10;;;;;;;;;;5001188;28;20045;-79
2023/03/18 03:01:43;;;;;;;64.13;40.90;;;;;;;;;;5000350;28;20105;-80
2023/03/18 03:04:09;;;;;;;60.40;39.78;;;;;;;;;;4999746;28;20148;-78
2023/03/18 03:06:35;;;;;;;60.05;38.10;;;;;;;;;;5007600;28;22233;-80
2023/03/18 03:09:01;;;;;;;74.97;41.38;;;;;;;;;;4994925;28;20044;-80
2023/03/18 03:11:27;;;;;;;73.40;42.40;;;;;;;;;;4996640;28;20079;-77
2023/03/18 03:13:52;;;;;;;74.97;46.22;;;;;;;;;;4996462;28;20045;-78
2023/03/18 03:16:20;;;;;;;78.70;48.40;;;;;;;;;;4982035;28;20144;-79
2023/03/18 03:18:45;;;;;;;84.28;51.63;;;;;;;;;;4997111;28;20548;-79
2023/03/18 03:21:11;;;;;;;82.78;51.97;;;;;;;;;;4989634;28;20038;-79
2023/03/18 03:23:40;;;;;;;71.50;45.72;;;;;;;;;;4967589;28;20038;-79
2023/03/18 03:26:05;;;;;;;59.85;38.92;;;;;;;;;;4991114;28;20042;-78
2023/03/18 03:28:33;;;;;;;54.10;37.00;;;;;;;;;;4975132;28;20048;-79
2023/03/18 03:30:59;;;;;;;57.53;36.92;;;;;;;;;;4997478;28;20980;-79
2023/03/18 03:33:25;;;;;;;63.30;38.80;;;;;;;;;;4982940;28;20045;-78
2023/03/18 03:35:50;;;;;;;67.38;42.88;;;;;;;;;;4999058;28;20037;-78
2023/03/18 03:38:16;;;;;;;59.38;39.40;;;;;;;;;;5000203;28;20143;-81
2023/03/18 03:40:41;;;;;;;51.75;34.60;;;;;;;;;;4998188;28;20041;-78
2023/03/18 03:43:07;;;;;;;50.90;33.25;;;;;;;;;;4999553;28;20065;-80
2023/03/18 03:45:32;;;;;;;43.30;29.17;;;;;;;;;;5008474;28;20769;-78
2023/03/18 03:47:58;;;;;;;46.45;30.42;;;;;;;;;;4998641;28;20653;-78
2023/03/18 03:50:25;;;;;;;41.30;29.50;;;;;;;;;;4987303;28;20117;-78
2023/03/18 03:52:51;;;;;;;39.88;29.42;;;;;;;;;;4981693;28;20120;-79
2023/03/18 03:55:21;;;;;;;39.10;29.45;;;;;;;;;;4993493;28;20171;-80
2023/03/18 03:57:48;;;;;;;41.70;28.70;;;;;;;;;;4998116;28;20188;-80
2023/03/18 04:00:15;;;;;;;45.30;31.15;;;;;;;;;;5000171;28;20042;-78
2023/03/18 04:02:43;;;;;;;40.83;29.50;;;;;;;;;;5001841;28;20075;-79
2023/03/18 04:05:12;;;;;;;42.45;30.52;;;;;;;;;;4996728;28;20096;-78
2023/03/18 04:07:38;;;;;;;45.55;30.90;;;;;;;;;;4984334;28;20055;-69
2023/03/18 04:10:04;;;;;;;39.85;30.05;;;;;;;;;;5001300;28;20046;-69
2023/03/18 04:12:31;;;;;;;45.95;29.98;;;;;;;;;;4997545;28;20037;-69
2023/03/18 04:14:57;;;;;;;40.80;29.35;;;;;;;;;;4996967;28;20045;-69
2023/03/18 04:17:22;;;;;;;40.25;29.40;;;;;;;;;;4995594;28;20034;-71
2023/03/18 04:19:48;;;;;;;39.03;28.88;;;;;;;;;;4980501;28;20034;-70
2023/03/18 04:22:14;;;;;;;44.72;30.10;;;;;;;;;;4997808;28;20510;-70
2023/03/18 04:24:39;;;;;;;42.63;30.55;;;;;;;;;;4987417;28;20026;-70
2023/03/18 04:27:07;;;;;;;41.30;28.65;;;;;;;;;;4996091;28;20990;-71
2023/03/18 04:29:34;;;;;;;37.80;27.80;;;;;;;;;;4996604;28;20026;-71
2023/03/18 04:32:00;;;;;;;35.92;27.60;;;;;;;;;;4995481;28;20122;-73
2023/03/18 04:34:26;;;;;;;38.28;28.05;;;;;;;;;;4996447;28;20052;-70
2023/03/18 04:36:51;;;;;;;36.47;28.17;;;;;;;;;;4997823;28;20778;-70
2023/03/18 04:39:16;;;;;;;39.70;28.98;;;;;;;;;;4995854;28;20046;-69
2023/03/18 04:41:42;;;;;;;39.08;29.48;;;;;;;;;;4963104;28;20057;-69
2023/03/18 04:44:07;;;;;;;40.30;28.60;;;;;;;;;;4999936;28;20049;-70
2023/03/18 04:46:32;;;;;;;44.08;30.10;;;;;;;;;;4998160;28;20034;-70
2023/03/18 04:48:58;;;;;;;41.67;30.30;;;;;;;;;;4997837;28;20050;-71
2023/03/18 04:51:24;;;;;;;40.92;29.63;;;;;;;;;;4973201;28;20034;-69
2023/03/18 04:53:52;;;;;;;43.72;30.10;;;;;;;;;;4994857;28;22123;-69
2023/03/18 04:56:20;;;;;;;39.58;29.45;;;;;;;;;;4996791;28;20033;-68
2023/03/18 04:58:45;;;;;;;43.05;29.75;;;;;;;;;;4997201;28;20076;-69
2023/03/18 05:01:12;;;;;;;43.50;29.83;;;;;;;;;;4989720;28;20941;-68
2023/03/18 05:03:37;;;;;;;42.17;30.15;;;;;;;;;;4996061;28;20049;-68
2023/03/18 05:06:08;;;;;;;41.10;30.98;;;;;;;;;;4996557;28;20065;-69
2023/03/18 05:08:34;;;;;;;44.10;31.02;;;;;;;;;;4983644;28;20121;-69
2023/03/18 05:10:59;;;;;;;41.58;31.25;;;;;;;;;;4997559;28;20134;-69
2023/03/18 05:13:24;;;;;;;42.40;32.05;;;;;;;;;;4996442;28;20041;-70
2023/03/18 05:15:49;;;;;;;49.05;32.15;;;;;;;;;;4997825;28;20080;-69
2023/03/18 05:18:15;;;;;;;45.42;32.15;;;;;;;;;;4994516;28;20041;-70
2023/03/18 05:20:40;;;;;;;43.20;32.03;;;;;;;;;;4989607;28;20029;-70
2023/03/18 05:23:06;;;;;;;44.08;32.08;;;;;;;;;;4978198;28;20493;-70
2023/03/18 05:25:33;;;;;;;47.92;33.60;;;;;;;;;;4997873;28;20030;-69
2023/03/18 05:28:01;;;;;;;48.60;33.88;;;;;;;;;;4971564;28;20041;-70
2023/03/18 05:30:27;;;;;;;57.00;35.25;;;;;;;;;;4997091;28;20415;-69
2023/03/18 05:32:54;;;;;;;46.80;33.90;;;;;;;;;;4995135;28;20590;-69
2023/03/18 05:35:20;;;;;;;60.63;36.63;;;;;;;;;;5001933;28;20046;-69
2023/03/18 05:37:46;;;;;;;51.13;36.70;;;;;;;;;;4995103;28;20798;-70
2023/03/18 05:40:12;;;;;;;55.05;35.72;;;;;;;;;;4986308;28;20090;-69
2023/03/18 05:42:39;;;;;;;60.97;36.75;;;;;;;;;;4992873;28;20030;-69
2023/03/18 05:45:06;;;;;;;60.85;36.40;;;;;;;;;;4995268;28;20148;-70
2023/03/18 05:47:31;;;;;;;53.67;37.72;;;;;;;;;;4995891;28;20787;-69
2023/03/18 05:49:57;;;;;;;57.20;38.97;;;;;;;;;;4987666;28;20041;-69
2023/03/18 05:52:23;;;;;;;60.38;38.25;;;;;;;;;;4988025;28;20056;-70
2023/03/18 05:54:49;;;;;;;62.50;41.42;;;;;;;;;;4983987;28;20151;-71
2023/03/18 05:57:14;;;;;;;76.53;37.78;;;;;;;;;;4982471;28;20868;-70
2023/03/18 05:59:40;;;;;;;52.78;32.80;;;;;;;;;;4996574;28;20099;-70
2023/03/18 06:02:08;;;;;;;49.85;33.78;;;;;;;;;;4995552;28;20118;-70
2023/03/18 06:04:33;;;;;;;49.83;32.55;;;;;;;;;;4982269;28;20725;-71
2023/03/18 06:07:00;;;;;;;53.58;33.92;;;;;;;;;;4994603;28;20042;-70
2023/03/18 06:09:25;;;;;;;58.22;34.92;;;;;;;;;;4982580;28;20041;-70
2023/03/18 06:11:50;;;;;;;46.17;31.08;;;;;;;;;;4994185;28;20103;-70
2023/03/18 06:14:16;;;;;;;50.50;32.47;;;;;;;;;;4993594;28;20525;-69
2023/03/18 06:16:42;;;;;;;49.17;32.80;;;;;;;;;;4995637;28;20037;-70
2023/03/18 06:19:09;;;;;;;44.55;31.27;;;;;;;;;;4962624;28;20109;-68
2023/03/18 06:21:35;;;;;;;53.00;35.78;;;;;;;;;;4982138;28;20041;-67
2023/03/18 06:24:03;;;;;;;54.60;36.70;;;;;;;;;;4995187;28;20040;-67
2023/03/18 06:26:28;;;;;;;53.38;35.30;;;;;;;;;;4970962;28;20041;-67
2023/03/18 06:28:55;;;;;;;51.78;35.85;;;;;;;;;;4981868;28;21129;-68
2023/03/18 06:31:21;;;;;;;54.88;37.20;;;;;;;;;;4995728;28;22309;-68
2023/03/18 06:33:46;;;;;;;56.20;40.33;;;;;;;;;;4993218;28;20049;-66
2023/03/18 06:36:12;;;;;;;51.08;37.55;;;;;;;;;;4992887;28;20038;-66
2023/03/18 06:38:39;;;;;;;54.50;33.08;;;;;;;;;;4995157;28;20076;-69
2023/03/18 06:41:05;;;;;;;38.78;29.58;;;;;;;;;;4963382;28;20056;-67
2023/03/18 06:43:30;;;;;;;46.63;29.90;;;;;;;;;;4993271;28;20038;-67
2023/03/18 06:45:56;;;;;;;42.45;29.55;;;;;;;;;;4975159;28;20049;-67
2023/03/18 06:48:22;;;;;;;41.83;28.95;;;;;;;;;;4980033;28;20896;-66
2023/03/18 06:50:48;;;;;;;46.58;30.10;;;;;;;;;;4993048;28;20502;-66
2023/03/18 06:53:13;;;;;;;43.30;29.52;;;;;;;;;;4995150;28;20100;-68
2023/03/18 06:55:40;;;;;;;45.25;29.38;;;;;;;;;;4992890;28;20764;-66
2023/03/18 06:58:05;;;;;;;42.58;27.27;;;;;;;;;;4991356;28;20123;-67
2023/03/18 07:00:32;;;;;;;52.75;29.63;;;;;;;;;;4990239;28;20041;-67
2023/03/18 07:02:58;;;;;;;56.45;31.15;;;;;;;;;;4994532;28;20033;-66
2023/03/18 07:05:23;;;;;;;63.08;33.47;;;;;;;;;;4993898;28;20045;-67
2023/03/18 07:07:49;;;;;;;49.75;28.60;;;;;;;;;;4994123;28;20030;-68
2023/03/18 07:10:26;;;;;;;42.67;26.20;;;;;;;;;;4969941;28;20041;-67
2023/03/18 07:12:51;;;;;;;39.58;23.58;;;;;;;;;;4978365;28;20033;-67
2023/03/18 07:15:19;;;;;;;34.65;24.38;;;;;;;;;;4994570;28;20610;-68
2023/03/18 07:17:45;;;;;;;31.20;21.88;;;;;;;;;;4983474;28;20045;-67
2023/03/18 07:20:14;;;;;;;30.73;20.77;;;;;;;;;;4992637;28;20077;-67
2023/03/18 07:22:39;;;;;;;43.53;24.13;;;;;;;;;;4994096;28;20026;-67
2023/03/18 07:25:06;;;;;;;42.15;26.10;;;;;;;;;;4995737;28;20036;-68
2023/03/18 07:27:32;;;;;;;46.33;25.42;;;;;;;;;;4993551;28;20034;-69
2023/03/18 07:30:00;;;;;;;50.22;26.92;;;;;;;;;;4992505;28;20037;-67
2023/03/18 07:32:26;;;;;;;42.20;23.80;;;;;;;;;;4994558;28;20111;-67
2023/03/18 07:34:51;;;;;;;40.05;25.25;;;;;;;;;;4994952;28;20510;-67
2023/03/18 07:37:17;;;;;;;48.90;29.27;;;;;;;;;;4994530;28;20037;-67
2023/03/18 07:39:45;;;;;;;49.28;27.02;;;;;;;;;;4989559;28;20037;-68
2023/03/18 07:42:11;;;;;;;46.30;26.27;;;;;;;;;;4985190;28;20101;-68
2023/03/18 07:44:38;;;;;;;45.63;25.98;;;;;;;;;;4970076;28;20356;-68
2023/03/18 07:47:04;;;;;;;35.42;22.85;;;;;;;;;;4976796;28;20068;-69
2023/03/18 07:49:30;;;;;;;36.22;21.08;;;;;;;;;;4975986;28;20037;-68
2023/03/18 07:51:56;;;;;;;41.10;24.05;;;;;;;;;;4992888;28;20428;-68
2023/03/18 07:54:22;;;;;;;42.47;24.25;;;;;;;;;;4969137;28;20048;-68
2023/03/18 07:56:50;;;;;;;35.05;23.33;;;;;;;;;;4994099;28;20038;-68
2023/03/18 07:59:16;;;;;;;37.63;21.98;;;;;;;;;;4992723;28;21419;-67
2023/03/18 08:01:41;;;;;;;40.03;23.02;;;;;;;;;;4994950;28;20037;-68
2023/03/18 08:04:07;;;;;;;36.85;21.30;;;;;;;;;;4993181;28;20041;-68
2023/03/18 08:06:34;;;;;;;36.60;20.52;;;;;;;;;;4993808;28;20029;-68
2023/03/18 08:09:00;;;;;;;29.73;17.63;;;;;;;;;;4994362;28;20138;-70
2023/03/18 08:11:25;;;;;;;35.63;21.65;;;;;;;;;;4981744;28;20041;-68
2023/03/18 08:13:50;;;;;;;38.17;21.77;;;;;;;;;;4994480;28;20041;-67
2023/03/18 08:16:17;;;;;;;30.98;19.00;;;;;;;;;;4993249;28;20038;-67
2023/03/18 08:18:42;;;;;;;33.10;19.17;;;;;;;;;;4993346;28;20033;-67
2023/03/18 08:21:08;;;;;;;30.55;17.08;;;;;;;;;;4993705;28;20037;-68
2023/03/18 08:23:35;;;;;;;27.80;16.58;;;;;;;;;;4993528;28;20087;-67
2023/03/18 08:26:01;;;;;;;26.63;16.90;;;;;;;;;;4994010;28;20034;-66
2023/03/18 08:28:27;;;;;;;25.85;14.70;;;;;;;;;;4973397;28;20048;-67
2023/03/18 08:30:54;;;;;;;26.70;15.07;;;;;;;;;;4986330;28;20454;-67
2023/03/18 08:33:22;;;;;;;22.23;14.23;;;;;;;;;;4969733;28;20465;-66
2023/03/18 08:35:48;;;;;;;18.17;13.98;;;;;;;;;;4992711;28;20339;-65
2023/03/18 08:38:13;;;;;;;22.20;14.32;;;;;;;;;;4984442;28;20042;-65
2023/03/18 08:40:40;;;;;;;26.60;14.70;;;;;;;;;;4991761;28;20132;-64
2023/03/18 08:43:06;;;;;;;26.60;15.52;;;;;;;;;;4992152;28;20560;-65
2023/03/18 08:45:35;;;;;;;20.30;11.27;;;;;;;;;;4991659;28;20050;-65
2023/03/18 08:48:01;;;;;;;20.23;12.98;;;;;;;;;;4994085;28;20037;-66
2023/03/18 08:50:28;;;;;;;11.77;9.23;;;;;;;;;;4993743;28;20034;-66
2023/03/18 08:52:57;;;;;;;13.32;9.07;;;;;;;;;;4996715;28;20116;-66
2023/03/18 08:55:26;;;;;;;15.25;9.23;;;;;;;;;;4996412;28;20108;-67
2023/03/18 08:57:52;;;;;;;11.98;8.07;;;;;;;;;;4996578;28;20427;-67
2023/03/18 09:00:17;;;;;;;12.38;9.30;;;;;;;;;;4996734;28;20227;-65
2023/03/18 09:02:42;;;;;;;13.52;9.20;;;;;;;;;;4995914;28;20033;-66
2023/03/18 09:05:08;;;;;;;9.80;7.65;;;;;;;;;;4997499;28;20812;-65
2023/03/18 09:07:33;;;;;;;13.48;9.27;;;;;;;;;;4994520;28;20040;-65
2023/03/18 09:09:58;;;;;;;11.20;8.30;;;;;;;;;;4996071;28;20040;-65
2023/03/18 09:12:24;;;;;;;11.23;7.93;;;;;;;;;;5010355;28;20033;-66
2023/03/18 09:14:49;;;;;;;10.82;8.10;;;;;;;;;;4996533;28;20050;-65
2023/03/18 09:17:14;;;;;;;14.10;9.48;;;;;;;;;;4996252;28;20041;-64
2023/03/18 09:19:40;;;;;;;14.18;9.40;;;;;;;;;;4978212;28;20037;-66
2023/03/18 09:22:06;;;;;;;15.45;10.95;;;;;;;;;;4997828;28;20038;-66
2023/03/18 09:24:31;;;;;;;14.77;11.30;;;;;;;;;;4994742;28;20045;-65
2023/03/18 09:26:58;;;;;;;14.57;11.88;;;;;;;;;;4977030;28;20030;-66
2023/03/18 09:29:23;;;;;;;15.73;12.63;;;;;;;;;;4977333;28;20029;-64
2023/03/18 09:31:51;;;;;;;17.90;12.40;;;;;;;;;;4987395;28;20552;-66
2023/03/18 09:34:17;;;;;;;20.55;13.52;;;;;;;;;;4995653;28;21901;-65
2023/03/18 09:36:48;;;;;;;18.58;12.95;;;;;;;;;;4994879;28;20321;-65
2023/03/18 09:39:13;;;;;;;17.48;12.80;;;;;;;;;;4994154;28;20062;-64
2023/03/18 09:41:49;;;;;;;16.58;12.38;;;;;;;;;;4993309;28;20497;-63
2023/03/18 09:44:25;;;;;;;15.93;10.93;;;;;;;;;;4994463;28;20525;-65
2023/03/18 09:46:53;;;;;;;16.23;12.45;;;;;;;;;;4995257;28;20156;-65
2023/03/18 09:49:28;;;;;;;18.33;13.10;;;;;;;;;;4988728;28;20163;-65
2023/03/18 09:52:01;;;;;;;14.80;12.82;;;;;;;;;;4994035;28;20048;-65
2023/03/18 09:54:32;;;;;;;16.52;12.90;;;;;;;;;;4994707;28;20096;-66
2023/03/18 09:56:58;;;;;;;15.10;12.13;;;;;;;;;;4994625;28;21700;-65
2023/03/18 09:59:28;;;;;;;19.48;12.85;;;;;;;;;;4994662;28;20039;-64
2023/03/18 10:01:54;;;;;;;22.33;15.85;;;;;;;;;;4996239;28;20048;-66
2023/03/18 10:04:27;;;;;;;21.83;15.73;;;;;;;;;;4996358;28;25355;-66
2023/03/18 10:06:56;;;;;;;20.05;15.98;;;;;;;;;;4996147;28;20355;-64
2023/03/18 10:09:32;;;;;;;20.23;15.45;;;;;;;;;;4997005;28;20723;-68
2023/03/18 10:12:14;;;;;;;20.27;15.65;;;;;;;;;;5000099;28;20068;-68
2023/03/18 10:14:56;;;;;;;20.45;15.68;;;;;;;;;;4995782;28;20048;-65
2023/03/18 10:17:29;;;;;;;19.30;14.77;;;;;;;;;;4994701;28;20033;-65
2023/03/18 10:19:59;;;;;;;18.65;15.52;;;;;;;;;;4993177;28;20737;-66
2023/03/18 10:22:37;;;;;;;22.90;16.73;;;;;;;;;;4994572;28;20041;-65
2023/03/18 10:25:22;;;;;;;20.35;16.92;;;;;;;;;;4992839;28;20038;-68
2023/03/18 10:27:48;;;;;;;26.30;16.08;;;;;;;;;;4973199;28;20045;-68
2023/03/18 10:30:32;;;;;;;22.73;18.67;;;;;;;;;;4971584;28;20048;-68
2023/03/18 10:33:00;;;;;;;23.10;17.20;;;;;;;;;;4997134;28;20760;-67
2023/03/18 10:35:25;;;;;;;20.58;14.63;;;;;;;;;;4993331;28;20068;-69
2023/03/18 10:37:54;;;;;;;19.17;14.80;;;;;;;;;;4972931;28;20536;-68
2023/03/18 10:40:19;;;;;;;20.13;15.57;;;;;;;;;;4969697;28;20046;-69
2023/03/18 10:42:49;;;;;;;18.63;14.18;;;;;;;;;;4970057;28;20600;-67
2023/03/18 10:45:17;;;;;;;18.98;13.98;;;;;;;;;;4968334;28;20053;-68
2023/03/18 10:47:45;;;;;;;25.95;15.43;;;;;;;;;;4967667;28;20343;-68
2023/03/18 10:50:19;;;;;;;18.40;14.77;;;;;;;;;;4985078;28;22487;-67
2023/03/18 10:52:53;;;;;;;19.67;14.52;;;;;;;;;;4970175;28;20166;-68
2023/03/18 10:55:21;;;;;;;19.30;15.25;;;;;;;;;;4969110;28;21006;-67
2023/03/18 10:57:46;;;;;;;20.05;15.50;;;;;;;;;;4968824;28;20380;-67
2023/03/18 11:00:15;;;;;;;20.73;15.73;;;;;;;;;;4984625;28;20045;-68
2023/03/18 11:02:40;;;;;;;20.05;14.90;;;;;;;;;;4966544;28;20038;-68
2023/03/18 11:05:21;;;;;;;19.33;15.02;;;;;;;;;;4969705;28;20057;-67
2023/03/18 11:08:06;;;;;;;20.13;15.60;;;;;;;;;;4969258;28;20046;-67
2023/03/18 11:10:34;;;;;;;23.58;16.50;;;;;;;;;;4967032;28;20070;-66
2023/03/18 11:13:02;;;;;;;22.55;17.48;;;;;;;;;;4968210;28;20038;-67
2023/03/18 11:15:35;;;;;;;23.33;16.90;;;;;;;;;;4968603;28;20045;-67
2023/03/18 11:18:02;;;;;;;21.65;16.42;;;;;;;;;;4985086;28;20046;-67
2023/03/18 11:20:36;;;;;;;21.92;15.75;;;;;;;;;;4985442;28;20038;-68
2023/03/18 11:23:12;;;;;;;18.25;15.57;;;;;;;;;;4960617;28;20041;-67
2023/03/18 11:25:38;;;;;;;18.08;15.85;;;;;;;;;;4983134;28;20081;-67
2023/03/18 11:28:04;;;;;;;18.00;15.55;;;;;;;;;;4969342;28;20480;-67
2023/03/18 11:30:34;;;;;;;19.17;14.70;;;;;;;;;;4967053;28;20042;-68
2023/03/18 11:33:05;;;;;;;18.42;14.93;;;;;;;;;;4970578;28;20038;-68
2023/03/18 11:35:42;;;;;;;21.67;15.88;;;;;;;;;;4967461;28;20035;-68
2023/03/18 11:38:19;;;;;;;21.52;15.52;;;;;;;;;;4967106;28;20502;-66
2023/03/18 11:40:45;;;;;;;22.10;16.40;;;;;;;;;;4989631;28;20072;-67
2023/03/18 11:43:15;;;;;;;20.02;15.30;;;;;;;;;;4994236;28;20030;-68
2023/03/18 11:45:41;;;;;;;22.20;15.57;;;;;;;;;;4994845;28;20029;-66
2023/03/18 11:48:12;;;;;;;20.70;15.13;;;;;;;;;;4997411;28;20838;-67
2023/03/18 11:50:58;;;;;;;17.73;14.25;;;;;;;;;;4996041;28;20034;-68
2023/03/18 11:53:36;;;;;;;18.98;13.77;;;;;;;;;;4993352;28;20045;-68
2023/03/18 11:56:16;;;;;;;20.70;15.60;;;;;;;;;;4995377;28;20211;-67
2023/03/18 11:58:54;;;;;;;19.83;15.32;;;;;;;;;;4978227;28;20034;-68
2023/03/18 12:01:26;;;;;;;20.80;16.05;;;;;;;;;;4996630;28;20063;-67
2023/03/18 12:04:04;;;;;;;25.23;18.05;;;;;;;;;;4995721;28;20034;-69
2023/03/18 12:06:35;;;;;;;22.48;16.88;;;;;;;;;;4992959;28;20033;-71
2023/03/18 12:09:20;;;;;;;22.42;16.88;;;;;;;;;;4993623;28;20771;-73
2023/03/18 12:12:05;;;;;;;20.63;16.38;;;;;;;;;;4992254;28;20565;-72
2023/03/18 12:14:44;;;;;;;18.38;15.15;;;;;;;;;;4992891;28;20112;-73
2023/03/18 12:17:28;;;;;;;19.30;15.73;;;;;;;;;;4994315;28;20044;-71
2023/03/18 12:20:08;;;;;;;19.80;14.15;;;;;;;;;;4994153;28;20037;-72
2023/03/18 12:22:53;;;;;;;20.02;14.68;;;;;;;;;;4992869;28;20161;-72
2023/03/18 12:25:29;;;;;;;17.23;14.25;;;;;;;;;;4995196;28;20514;-72
2023/03/18 12:27:59;;;;;;;21.17;15.60;;;;;;;;;;4991456;28;20038;-71
2023/03/18 12:30:43;;;;;;;24.23;16.02;;;;;;;;;;4998813;28;20138;-72
2023/03/18 12:33:17;;;;;;;21.20;16.23;;;;;;;;;;4963376;28;20245;-70
2023/03/18 12:35:58;;;;;;;21.63;17.25;;;;;;;;;;4980684;28;20123;-72
2023/03/18 12:38:42;;;;;;;23.27;16.77;;;;;;;;;;4999095;28;20100;-72
2023/03/18 12:41:34;;;;;;;21.98;17.33;;;;;;;;;;4997558;28;20053;-71
2023/03/18 12:44:06;;;;;;;23.90;17.58;;;;;;;;;;4998456;28;20034;-72
2023/03/18 12:46:44;;;;;;;26.50;18.52;;;;;;;;;;4997553;28;20574;-72
2023/03/18 12:49:13;;;;;;;27.70;18.17;;;;;;;;;;4980205;28;20102;-72
2023/03/18 12:51:59;;;;;;;25.17;15.88;;;;;;;;;;4995671;28;20185;-71
2023/03/18 12:54:26;;;;;;;20.75;14.10;;;;;;;;;;4981921;28;20053;-71
2023/03/18 12:56:58;;;;;;;18.95;11.38;;;;;;;;;;4996889;28;20033;-72
2023/03/18 12:59:27;;;;;;;18.48;11.32;;;;;;;;;;5011256;28;20042;-70
2023/03/18 13:01:52;;;;;;;10.45;8.38;;;;;;;;;;4972341;28;20165;-68
2023/03/18 13:04:21;;;;;;;15.82;9.02;;;;;;;;;;4998057;28;20042;-67
2023/03/18 13:06:46;;;;;;;15.57;9.95;;;;;;;;;;4996198;28;20081;-69
2023/03/18 13:09:24;;;;;;;14.88;10.40;;;;;;;;;;4997465;28;20340;-69
2023/03/18 13:11:52;;;;;;;18.27;10.10;;;;;;;;;;4994602;28;20305;-70
2023/03/18 13:14:50;;;;;;;15.90;10.52;;;;;;;;;;4994094;28;20170;-69
2023/03/18 13:17:30;;;;;;;17.33;9.98;;;;;;;;;;4943995;28;20541;-70
2023/03/18 13:19:59;;;;;;;15.50;10.13;;;;;;;;;;4996418;28;20092;-69
2023/03/18 13:22:31;;;;;;;15.48;9.85;;;;;;;;;;5004813;28;22205;-69
2023/03/18 13:25:14;;;;;;;12.43;8.95;;;;;;;;;;4982026;28;20052;-70
2023/03/18 13:27:48;;;;;;;21.63;10.68;;;;;;;;;;4982046;28;20840;-69
2023/03/18 13:30:22;;;;;;;16.58;9.00;;;;;;;;;;4981075;28;20041;-70
2023/03/18 13:33:15;;;;;;;14.45;7.85;;;;;;;;;;4996718;28;20144;-68
2023/03/18 13:35:49;;;;;;;11.73;7.18;;;;;;;;;;4995458;28;20610;-70
2023/03/18 13:38:23;;;;;;;10.45;6.43;;;;;;;;;;4995424;28;20045;-70
2023/03/18 13:41:01;;;;;;;12.18;6.53;;;;;;;;;;4994856;28;20049;-68
2023/03/18 13:43:27;;;;;;;17.30;7.20;;;;;;;;;;4986812;28;20036;-69
2023/03/18 13:45:54;;;;;;;12.10;4.97;;;;;;;;;;4983881;28;20041;-70
2023/03/18 13:48:35;;;;;;;6.65;3.53;;;;;;;;;;4993579;28;20041;-70
2023/03/18 13:51:19;;;;;;;6.10;3.50;;;;;;;;;;4986102;28;20128;-69
2023/03/18 13:53:45;;;;;;;7.03;3.53;;;;;;;;;;4960535;28;20566;-69
2023/03/18 13:56:30;;;;;;;15.73;7.90;;;;;;;;;;4996119;28;20041;-70
2023/03/18 13:58:55;;;;;;;11.18;4.93;;;;;;;;;;4996532;28;20041;-70
2023/03/18 14:01:56;;;;;;;6.82;4.15;;;;;;;;;;4994650;28;20076;-71
2023/03/18 14:04:30;;;;;;;10.73;4.78;;;;;;;;;;4972663;28;20037;-70
2023/03/18 14:07:02;;;;;;;9.98;4.40;;;;;;;;;;4989312;28;20110;-71
2023/03/18 14:09:27;;;;;;;8.30;3.85;;;;;;;;;;4996101;28;20034;-71
2023/03/18 14:11:52;;;;;;;12.88;4.57;;;;;;;;;;4997626;28;20052;-72
2023/03/18 14:14:36;;;;;;;10.20;5.18;;;;;;;;;;4996014;28;20566;-70
2023/03/18 14:17:05;;;;;;;7.60;4.20;;;;;;;;;;4979644;28;21944;-70
2023/03/18 14:19:31;;;;;;;8.77;4.60;;;;;;;;;;4996526;28;20037;-70
2023/03/18 14:22:08;;;;;;;7.35;4.30;;;;;;;;;;4996841;28;20544;-71
2023/03/18 14:24:33;;;;;;;9.52;4.43;;;;;;;;;;4996123;28;20121;-72
2023/03/18 14:27:02;;;;;;;7.85;4.30;;;;;;;;;;4995690;28;20095;-72
2023/03/18 14:29:33;;;;;;;10.25;5.55;;;;;;;;;;4996082;28;20433;-70